FRA weather

Frankfurt am Main International Airport
Frankfurt-am-Main, Hesse, Germany

Public forecast

Using degrees Celsius for public forecast. Weather courtesy of forecast.io.

METAR (pilot weather report)

Retrieved 2017/03/28 13:20 UTC (33 minutes ago):

EDDF 281320Z 23010KT CAVOK 21/07 Q1021 NOSIG

TAF (pilot weather forecast)

Retrieved 2017/03/28 12:27 UTC (1 hour ago):

TAF TAF EDDF 281100Z 2812/2918 22007KT CAVOK